sensor_id;sensor_type;location;lat;lon;timestamp;P1;durP1;ratioP1;P2;durP2;ratioP2
6928;SDS011;3504;52.616;13.238;2023-06-22T00:02:35;19.98;;;18.08;;
6928;SDS011;3504;52.616;13.238;2023-06-22T00:07:35;19.88;;;17.73;;
6928;SDS011;3504;52.616;13.238;2023-06-22T00:12:36;20.08;;;18.17;;
6928;SDS011;3504;52.616;13.238;2023-06-22T00:17:37;20.25;;;18.25;;
6928;SDS011;3504;52.616;13.238;2023-06-22T00:22:38;19.75;;;17.75;;
6928;SDS011;3504;52.616;13.238;2023-06-22T00:27:39;20.92;;;18.70;;
6928;SDS011;3504;52.616;13.238;2023-06-22T00:32:40;19.67;;;17.52;;
6928;SDS011;3504;52.616;13.238;2023-06-22T00:37:41;19.65;;;17.75;;
6928;SDS011;3504;52.616;13.238;2023-06-22T00:42:42;20.38;;;18.17;;
6928;SDS011;3504;52.616;13.238;2023-06-22T00:47:42;19.52;;;17.52;;
6928;SDS011;3504;52.616;13.238;2023-06-22T00:52:44;20.30;;;18.23;;
6928;SDS011;3504;52.616;13.238;2023-06-22T00:57:46;18.20;;;16.30;;
6928;SDS011;3504;52.616;13.238;2023-06-22T01:02:48;20.73;;;17.10;;
6928;SDS011;3504;52.616;13.238;2023-06-22T01:18:30;19.15;;;17.15;;
6928;SDS011;3504;52.616;13.238;2023-06-22T01:23:40;18.10;;;16.08;;
6928;SDS011;3504;52.616;13.238;2023-06-22T01:29:06;17.08;;;15.38;;
6928;SDS011;3504;52.616;13.238;2023-06-22T01:34:12;18.52;;;16.63;;
6928;SDS011;3504;52.616;13.238;2023-06-22T01:39:14;18.55;;;16.63;;
6928;SDS011;3504;52.616;13.238;2023-06-22T01:44:15;18.35;;;15.75;;
6928;SDS011;3504;52.616;13.238;2023-06-22T01:49:16;18.20;;;16.35;;
6928;SDS011;3504;52.616;13.238;2023-06-22T01:54:17;18.02;;;16.10;;
6928;SDS011;3504;52.616;13.238;2023-06-22T01:59:25;20.45;;;16.33;;
6928;SDS011;3504;52.616;13.238;2023-06-22T02:04:34;17.95;;;16.15;;
6928;SDS011;3504;52.616;13.238;2023-06-22T02:09:36;19.00;;;17.02;;
6928;SDS011;3504;52.616;13.238;2023-06-22T02:14:38;18.00;;;16.25;;
6928;SDS011;3504;52.616;13.238;2023-06-22T02:19:43;17.58;;;15.88;;
6928;SDS011;3504;52.616;13.238;2023-06-22T02:24:43;17.60;;;15.82;;
6928;SDS011;3504;52.616;13.238;2023-06-22T02:29:44;16.50;;;14.90;;
6928;SDS011;3504;52.616;13.238;2023-06-22T02:34:44;18.05;;;15.95;;
6928;SDS011;3504;52.616;13.238;2023-06-22T02:39:47;16.92;;;15.13;;
6928;SDS011;3504;52.616;13.238;2023-06-22T02:44:48;18.77;;;15.55;;
6928;SDS011;3504;52.616;13.238;2023-06-22T02:49:49;17.00;;;15.23;;
6928;SDS011;3504;52.616;13.238;2023-06-22T02:54:50;17.08;;;15.38;;
6928;SDS011;3504;52.616;13.238;2023-06-22T02:59:50;17.35;;;15.13;;
6928;SDS011;3504;52.616;13.238;2023-06-22T03:04:51;16.55;;;14.95;;
6928;SDS011;3504;52.616;13.238;2023-06-22T03:09:53;17.98;;;16.17;;
6928;SDS011;3504;52.616;13.238;2023-06-22T03:14:54;16.92;;;15.23;;
6928;SDS011;3504;52.616;13.238;2023-06-22T03:19:54;19.75;;;17.60;;
6928;SDS011;3504;52.616;13.238;2023-06-22T03:24:55;18.38;;;15.65;;
6928;SDS011;3504;52.616;13.238;2023-06-22T03:29:58;17.00;;;14.82;;
6928;SDS011;3504;52.616;13.238;2023-06-22T03:34:59;16.15;;;14.45;;
6928;SDS011;3504;52.616;13.238;2023-06-22T03:40:01;16.25;;;14.55;;
6928;SDS011;3504;52.616;13.238;2023-06-22T03:45:04;16.25;;;14.65;;
6928;SDS011;3504;52.616;13.238;2023-06-22T03:50:05;17.77;;;15.18;;
6928;SDS011;3504;52.616;13.238;2023-06-22T03:55:06;17.40;;;15.60;;
6928;SDS011;3504;52.616;13.238;2023-06-22T04:00:07;16.08;;;14.32;;
6928;SDS011;3504;52.616;13.238;2023-06-22T04:05:13;17.77;;;16.05;;
6928;SDS011;3504;52.616;13.238;2023-06-22T04:10:13;18.23;;;16.23;;
6928;SDS011;3504;52.616;13.238;2023-06-22T04:15:14;17.95;;;16.17;;
6928;SDS011;3504;52.616;13.238;2023-06-22T04:20:14;16.58;;;14.88;;
6928;SDS011;3504;52.616;13.238;2023-06-22T04:25:15;17.45;;;15.68;;
6928;SDS011;3504;52.616;13.238;2023-06-22T04:30:16;18.45;;;16.40;;
6928;SDS011;3504;52.616;13.238;2023-06-22T04:35:17;20.48;;;16.30;;
6928;SDS011;3504;52.616;13.238;2023-06-22T04:40:17;16.50;;;14.27;;
6928;SDS011;3504;52.616;13.238;2023-06-22T04:45:18;15.43;;;13.93;;
6928;SDS011;3504;52.616;13.238;2023-06-22T04:50:19;15.63;;;14.02;;
6928;SDS011;3504;52.616;13.238;2023-06-22T04:55:21;13.02;;;11.63;;
6928;SDS011;3504;52.616;13.238;2023-06-22T05:00:22;14.45;;;12.98;;
6928;SDS011;3504;52.616;13.238;2023-06-22T05:05:23;14.52;;;12.63;;
6928;SDS011;3504;52.616;13.238;2023-06-22T05:10:24;12.52;;;11.00;;
6928;SDS011;3504;52.616;13.238;2023-06-22T05:15:25;16.67;;;11.02;;
6928;SDS011;3504;52.616;13.238;2023-06-22T05:20:30;10.73;;;9.63;;
6928;SDS011;3504;52.616;13.238;2023-06-22T05:25:30;11.75;;;10.35;;
6928;SDS011;3504;52.616;13.238;2023-06-22T05:30:34;10.95;;;9.85;;
6928;SDS011;3504;52.616;13.238;2023-06-22T05:35:34;10.02;;;8.90;;
6928;SDS011;3504;52.616;13.238;2023-06-22T05:40:35;11.55;;;9.80;;
6928;SDS011;3504;52.616;13.238;2023-06-22T05:45:35;10.82;;;9.55;;
6928;SDS011;3504;52.616;13.238;2023-06-22T05:50:39;11.88;;;9.13;;
6928;SDS011;3504;52.616;13.238;2023-06-22T05:55:39;9.80;;;8.90;;
6928;SDS011;3504;52.616;13.238;2023-06-22T06:00:40;10.45;;;8.35;;
6928;SDS011;3504;52.616;13.238;2023-06-22T06:05:42;9.77;;;7.90;;
6928;SDS011;3504;52.616;13.238;2023-06-22T06:10:43;10.93;;;6.25;;
6928;SDS011;3504;52.616;13.238;2023-06-22T06:15:43;6.45;;;5.70;;
6928;SDS011;3504;52.616;13.238;2023-06-22T06:20:44;7.72;;;5.57;;
6928;SDS011;3504;52.616;13.238;2023-06-22T06:25:48;8.02;;;5.43;;
6928;SDS011;3504;52.616;13.238;2023-06-22T06:30:48;5.47;;;4.95;;
6928;SDS011;3504;52.616;13.238;2023-06-22T06:35:49;5.32;;;4.82;;
6928;SDS011;3504;52.616;13.238;2023-06-22T06:40:49;6.47;;;4.32;;
6928;SDS011;3504;52.616;13.238;2023-06-22T06:45:50;6.70;;;4.03;;
6928;SDS011;3504;52.616;13.238;2023-06-22T06:50:50;5.15;;;3.72;;
6928;SDS011;3504;52.616;13.238;2023-06-22T06:55:51;4.20;;;3.90;;
6928;SDS011;3504;52.616;13.238;2023-06-22T07:00:52;4.28;;;3.88;;
6928;SDS011;3504;52.616;13.238;2023-06-22T07:05:52;5.25;;;3.90;;
6928;SDS011;3504;52.616;13.238;2023-06-22T07:10:53;4.32;;;3.72;;
6928;SDS011;3504;52.616;13.238;2023-06-22T07:15:53;4.10;;;3.70;;
6928;SDS011;3504;52.616;13.238;2023-06-22T07:20:54;3.83;;;3.10;;
6928;SDS011;3504;52.616;13.238;2023-06-22T07:25:54;5.55;;;3.95;;
6928;SDS011;3504;52.616;13.238;2023-06-22T07:30:55;4.88;;;3.92;;
6928;SDS011;3504;52.616;13.238;2023-06-22T07:35:55;8.77;;;3.97;;
6928;SDS011;3504;52.616;13.238;2023-06-22T07:40:56;5.78;;;3.92;;
6928;SDS011;3504;52.616;13.238;2023-06-22T07:45:59;6.45;;;4.15;;
6928;SDS011;3504;52.616;13.238;2023-06-22T07:50:59;4.20;;;3.80;;
6928;SDS011;3504;52.616;13.238;2023-06-22T07:56:00;5.88;;;4.20;;
6928;SDS011;3504;52.616;13.238;2023-06-22T08:01:01;4.15;;;3.72;;
6928;SDS011;3504;52.616;13.238;2023-06-22T08:06:03;5.28;;;3.70;;
6928;SDS011;3504;52.616;13.238;2023-06-22T08:11:03;5.82;;;3.65;;
6928;SDS011;3504;52.616;13.238;2023-06-22T08:16:05;6.55;;;3.80;;
6928;SDS011;3504;52.616;13.238;2023-06-22T08:21:07;3.80;;;3.45;;
6928;SDS011;3504;52.616;13.238;2023-06-22T08:26:08;4.07;;;3.15;;
6928;SDS011;3504;52.616;13.238;2023-06-22T08:31:08;4.38;;;3.38;;
6928;SDS011;3504;52.616;13.238;2023-06-22T08:36:09;3.97;;;3.47;;
6928;SDS011;3504;52.616;13.238;2023-06-22T08:41:11;3.60;;;3.28;;
6928;SDS011;3504;52.616;13.238;2023-06-22T08:46:12;5.13;;;3.85;;
6928;SDS011;3504;52.616;13.238;2023-06-22T08:51:12;5.22;;;3.53;;
6928;SDS011;3504;52.616;13.238;2023-06-22T08:56:14;3.88;;;3.40;;
6928;SDS011;3504;52.616;13.238;2023-06-22T09:01:14;4.35;;;3.70;;
6928;SDS011;3504;52.616;13.238;2023-06-22T09:06:15;4.72;;;3.33;;
6928;SDS011;3504;52.616;13.238;2023-06-22T09:11:16;4.97;;;3.42;;
6928;SDS011;3504;52.616;13.238;2023-06-22T09:16:16;5.32;;;3.20;;
6928;SDS011;3504;52.616;13.238;2023-06-22T09:21:17;3.90;;;3.00;;
6928;SDS011;3504;52.616;13.238;2023-06-22T09:26:18;5.50;;;3.10;;
6928;SDS011;3504;52.616;13.238;2023-06-22T09:31:19;3.10;;;2.80;;
6928;SDS011;3504;52.616;13.238;2023-06-22T09:36:25;6.57;;;2.90;;
6928;SDS011;3504;52.616;13.238;2023-06-22T09:41:26;5.60;;;3.30;;
6928;SDS011;3504;52.616;13.238;2023-06-22T09:46:26;3.45;;;3.13;;
6928;SDS011;3504;52.616;13.238;2023-06-22T09:51:27;5.22;;;3.22;;
6928;SDS011;3504;52.616;13.238;2023-06-22T09:56:28;4.72;;;3.40;;
6928;SDS011;3504;52.616;13.238;2023-06-22T10:01:30;4.15;;;3.75;;
6928;SDS011;3504;52.616;13.238;2023-06-22T10:06:30;6.47;;;4.25;;
6928;SDS011;3504;52.616;13.238;2023-06-22T10:11:31;4.45;;;3.97;;
6928;SDS011;3504;52.616;13.238;2023-06-22T10:16:35;4.82;;;4.10;;
6928;SDS011;3504;52.616;13.238;2023-06-22T10:21:36;5.80;;;4.45;;
6928;SDS011;3504;52.616;13.238;2023-06-22T10:26:36;7.65;;;4.80;;
6928;SDS011;3504;52.616;13.238;2023-06-22T10:31:37;5.40;;;4.80;;
6928;SDS011;3504;52.616;13.238;2023-06-22T10:36:38;5.18;;;4.68;;
6928;SDS011;3504;52.616;13.238;2023-06-22T10:41:39;6.40;;;4.60;;
6928;SDS011;3504;52.616;13.238;2023-06-22T10:46:39;5.38;;;4.88;;
6928;SDS011;3504;52.616;13.238;2023-06-22T10:51:39;4.40;;;3.92;;
6928;SDS011;3504;52.616;13.238;2023-06-22T10:56:41;5.00;;;4.22;;
6928;SDS011;3504;52.616;13.238;2023-06-22T11:01:42;7.05;;;4.97;;
6928;SDS011;3504;52.616;13.238;2023-06-22T11:06:43;5.15;;;4.65;;
6928;SDS011;3504;52.616;13.238;2023-06-22T11:11:44;5.55;;;4.97;;
6928;SDS011;3504;52.616;13.238;2023-06-22T11:16:45;5.60;;;5.10;;
6928;SDS011;3504;52.616;13.238;2023-06-22T11:21:46;5.13;;;4.72;;
6928;SDS011;3504;52.616;13.238;2023-06-22T11:26:47;7.90;;;4.82;;
6928;SDS011;3504;52.616;13.238;2023-06-22T11:31:47;5.95;;;5.38;;
6928;SDS011;3504;52.616;13.238;2023-06-22T11:36:48;5.88;;;4.82;;
6928;SDS011;3504;52.616;13.238;2023-06-22T11:41:48;5.15;;;4.72;;
6928;SDS011;3504;52.616;13.238;2023-06-22T11:46:49;8.13;;;4.85;;
6928;SDS011;3504;52.616;13.238;2023-06-22T11:51:49;4.72;;;4.32;;
6928;SDS011;3504;52.616;13.238;2023-06-22T11:56:50;5.47;;;4.55;;
6928;SDS011;3504;52.616;13.238;2023-06-22T12:01:50;5.18;;;4.75;;
6928;SDS011;3504;52.616;13.238;2023-06-22T12:06:51;4.97;;;4.47;;
6928;SDS011;3504;52.616;13.238;2023-06-22T12:11:52;5.65;;;5.15;;
6928;SDS011;3504;52.616;13.238;2023-06-22T12:16:52;6.00;;;4.95;;
6928;SDS011;3504;52.616;13.238;2023-06-22T12:21:53;6.03;;;4.80;;
6928;SDS011;3504;52.616;13.238;2023-06-22T12:26:53;5.82;;;5.20;;
6928;SDS011;3504;52.616;13.238;2023-06-22T12:31:54;6.63;;;4.70;;
6928;SDS011;3504;52.616;13.238;2023-06-22T12:36:54;4.80;;;4.38;;
6928;SDS011;3504;52.616;13.238;2023-06-22T12:41:55;5.75;;;5.25;;
6928;SDS011;3504;52.616;13.238;2023-06-22T12:46:56;5.53;;;4.70;;
6928;SDS011;3504;52.616;13.238;2023-06-22T12:51:59;5.03;;;4.63;;
6928;SDS011;3504;52.616;13.238;2023-06-22T12:57:00;8.32;;;5.45;;
6928;SDS011;3504;52.616;13.238;2023-06-22T13:02:01;4.88;;;4.32;;
6928;SDS011;3504;52.616;13.238;2023-06-22T13:07:02;5.28;;;4.82;;
6928;SDS011;3504;52.616;13.238;2023-06-22T13:12:02;6.10;;;5.53;;
6928;SDS011;3504;52.616;13.238;2023-06-22T13:17:03;6.20;;;5.50;;
6928;SDS011;3504;52.616;13.238;2023-06-22T13:22:04;5.47;;;4.97;;
6928;SDS011;3504;52.616;13.238;2023-06-22T13:27:05;6.15;;;5.53;;
6928;SDS011;3504;52.616;13.238;2023-06-22T13:32:06;6.03;;;5.50;;
6928;SDS011;3504;52.616;13.238;2023-06-22T13:37:06;6.38;;;5.45;;
6928;SDS011;3504;52.616;13.238;2023-06-22T13:42:07;6.82;;;5.28;;
6928;SDS011;3504;52.616;13.238;2023-06-22T13:47:08;6.10;;;5.57;;
6928;SDS011;3504;52.616;13.238;2023-06-22T13:52:08;5.90;;;5.43;;
6928;SDS011;3504;52.616;13.238;2023-06-22T13:57:13;8.48;;;5.45;;
6928;SDS011;3504;52.616;13.238;2023-06-22T14:02:13;6.30;;;5.72;;
6928;SDS011;3504;52.616;13.238;2023-06-22T14:07:14;6.65;;;5.72;;
6928;SDS011;3504;52.616;13.238;2023-06-22T14:12:14;6.22;;;5.72;;
6928;SDS011;3504;52.616;13.238;2023-06-22T14:17:15;6.50;;;5.85;;
6928;SDS011;3504;52.616;13.238;2023-06-22T14:22:16;6.47;;;5.88;;
6928;SDS011;3504;52.616;13.238;2023-06-22T14:27:16;6.95;;;5.72;;
6928;SDS011;3504;52.616;13.238;2023-06-22T14:32:17;6.70;;;6.00;;
6928;SDS011;3504;52.616;13.238;2023-06-22T14:37:17;6.88;;;5.50;;
6928;SDS011;3504;52.616;13.238;2023-06-22T14:42:18;6.30;;;5.80;;
6928;SDS011;3504;52.616;13.238;2023-06-22T14:47:18;6.65;;;6.10;;
6928;SDS011;3504;52.616;13.238;2023-06-22T14:52:19;6.90;;;6.22;;
6928;SDS011;3504;52.616;13.238;2023-06-22T14:57:20;6.53;;;5.93;;
6928;SDS011;3504;52.616;13.238;2023-06-22T15:02:22;6.28;;;5.68;;
6928;SDS011;3504;52.616;13.238;2023-06-22T15:07:23;6.15;;;5.55;;
6928;SDS011;3504;52.616;13.238;2023-06-22T15:12:23;7.28;;;6.03;;
6928;SDS011;3504;52.616;13.238;2023-06-22T15:17:24;7.30;;;6.00;;
6928;SDS011;3504;52.616;13.238;2023-06-22T15:22:29;6.72;;;6.22;;
6928;SDS011;3504;52.616;13.238;2023-06-22T15:27:31;6.45;;;5.85;;
6928;SDS011;3504;52.616;13.238;2023-06-22T15:32:31;6.35;;;5.85;;
6928;SDS011;3504;52.616;13.238;2023-06-22T15:37:32;6.38;;;5.88;;
6928;SDS011;3504;52.616;13.238;2023-06-22T15:42:32;7.15;;;6.43;;
6928;SDS011;3504;52.616;13.238;2023-06-22T15:47:33;6.65;;;5.95;;
6928;SDS011;3504;52.616;13.238;2023-06-22T15:52:34;7.60;;;6.10;;
6928;SDS011;3504;52.616;13.238;2023-06-22T15:57:34;7.22;;;6.22;;
6928;SDS011;3504;52.616;13.238;2023-06-22T16:02:35;7.07;;;6.38;;
6928;SDS011;3504;52.616;13.238;2023-06-22T16:07:36;6.80;;;6.20;;
6928;SDS011;3504;52.616;13.238;2023-06-22T16:12:37;6.57;;;5.97;;
6928;SDS011;3504;52.616;13.238;2023-06-22T16:17:42;6.97;;;6.28;;
6928;SDS011;3504;52.616;13.238;2023-06-22T16:22:42;6.72;;;6.13;;
6928;SDS011;3504;52.616;13.238;2023-06-22T16:27:46;7.38;;;6.35;;
6928;SDS011;3504;52.616;13.238;2023-06-22T16:32:53;6.85;;;6.20;;
6928;SDS011;3504;52.616;13.238;2023-06-22T16:37:55;7.25;;;6.55;;
6928;SDS011;3504;52.616;13.238;2023-06-22T16:42:55;8.07;;;5.90;;
6928;SDS011;3504;52.616;13.238;2023-06-22T16:47:56;8.43;;;6.65;;
6928;SDS011;3504;52.616;13.238;2023-06-22T16:52:56;6.90;;;6.22;;
6928;SDS011;3504;52.616;13.238;2023-06-22T16:57:57;6.95;;;6.32;;
6928;SDS011;3504;52.616;13.238;2023-06-22T17:02:59;6.85;;;6.25;;
6928;SDS011;3504;52.616;13.238;2023-06-22T17:08:04;7.05;;;6.38;;
6928;SDS011;3504;52.616;13.238;2023-06-22T17:13:06;6.57;;;5.97;;
6928;SDS011;3504;52.616;13.238;2023-06-22T17:18:07;6.90;;;6.20;;
6928;SDS011;3504;52.616;13.238;2023-06-22T17:23:10;6.40;;;5.88;;
6928;SDS011;3504;52.616;13.238;2023-06-22T17:28:10;7.75;;;6.43;;
6928;SDS011;3504;52.616;13.238;2023-06-22T17:33:14;8.82;;;5.95;;
6928;SDS011;3504;52.616;13.238;2023-06-22T17:38:21;8.07;;;6.18;;
6928;SDS011;3504;52.616;13.238;2023-06-22T17:43:22;6.65;;;5.88;;
6928;SDS011;3504;52.616;13.238;2023-06-22T17:48:23;6.38;;;5.78;;
6928;SDS011;3504;52.616;13.238;2023-06-22T17:53:25;6.97;;;6.28;;
6928;SDS011;3504;52.616;13.238;2023-06-22T17:58:27;6.57;;;5.97;;
6928;SDS011;3504;52.616;13.238;2023-06-22T18:03:28;6.65;;;6.05;;
6928;SDS011;3504;52.616;13.238;2023-06-22T18:08:28;7.05;;;5.82;;
6928;SDS011;3504;52.616;13.238;2023-06-22T18:13:29;7.13;;;6.50;;
6928;SDS011;3504;52.616;13.238;2023-06-22T18:18:30;6.60;;;6.05;;
6928;SDS011;3504;52.616;13.238;2023-06-22T18:23:33;7.63;;;6.80;;
6928;SDS011;3504;52.616;13.238;2023-06-22T18:28:36;7.28;;;6.57;;
6928;SDS011;3504;52.616;13.238;2023-06-22T18:33:37;7.90;;;6.88;;
6928;SDS011;3504;52.616;13.238;2023-06-22T18:38:40;7.68;;;6.95;;
6928;SDS011;3504;52.616;13.238;2023-06-22T18:43:42;7.60;;;6.90;;
6928;SDS011;3504;52.616;13.238;2023-06-22T18:48:42;6.85;;;6.25;;
6928;SDS011;3504;52.616;13.238;2023-06-22T18:53:46;7.32;;;6.63;;
6928;SDS011;3504;52.616;13.238;2023-06-22T18:59:03;9.20;;;6.50;;
6928;SDS011;3504;52.616;13.238;2023-06-22T19:04:15;7.63;;;6.60;;
6928;SDS011;3504;52.616;13.238;2023-06-22T19:09:16;7.30;;;6.70;;
6928;SDS011;3504;52.616;13.238;2023-06-22T19:14:19;6.97;;;6.38;;
6928;SDS011;3504;52.616;13.238;2023-06-22T19:19:24;7.68;;;6.95;;
6928;SDS011;3504;52.616;13.238;2023-06-22T19:24:28;7.18;;;6.47;;
6928;SDS011;3504;52.616;13.238;2023-06-22T19:29:30;7.85;;;7.05;;
6928;SDS011;3504;52.616;13.238;2023-06-22T19:34:34;7.13;;;6.53;;
6928;SDS011;3504;52.616;13.238;2023-06-22T19:39:36;8.00;;;7.20;;
6928;SDS011;3504;52.616;13.238;2023-06-22T19:44:37;8.05;;;7.25;;
6928;SDS011;3504;52.616;13.238;2023-06-22T19:49:37;7.85;;;7.15;;
6928;SDS011;3504;52.616;13.238;2023-06-22T19:54:38;8.00;;;7.22;;
6928;SDS011;3504;52.616;13.238;2023-06-22T19:59:40;7.93;;;6.75;;
6928;SDS011;3504;52.616;13.238;2023-06-22T20:11:27;8.75;;;7.45;;
6928;SDS011;3504;52.616;13.238;2023-06-22T20:16:30;7.90;;;7.20;;
6928;SDS011;3504;52.616;13.238;2023-06-22T20:21:31;8.20;;;7.40;;
6928;SDS011;3504;52.616;13.238;2023-06-22T20:26:41;7.88;;;7.10;;
6928;SDS011;3504;52.616;13.238;2023-06-22T20:31:47;8.07;;;7.28;;
6928;SDS011;3504;52.616;13.238;2023-06-22T20:36:47;9.20;;;7.70;;
6928;SDS011;3504;52.616;13.238;2023-06-22T20:41:48;19.10;;;10.52;;
6928;SDS011;3504;52.616;13.238;2023-06-22T20:46:48;16.45;;;13.15;;
6928;SDS011;3504;52.616;13.238;2023-06-22T20:51:49;13.98;;;11.88;;
6928;SDS011;3504;52.616;13.238;2023-06-22T20:56:49;12.68;;;11.07;;
6928;SDS011;3504;52.616;13.238;2023-06-22T21:01:50;17.80;;;13.70;;
6928;SDS011;3504;52.616;13.238;2023-06-22T21:06:56;20.23;;;14.07;;
6928;SDS011;3504;52.616;13.238;2023-06-22T21:11:57;16.13;;;14.23;;
6928;SDS011;3504;52.616;13.238;2023-06-22T21:16:59;16.77;;;14.25;;
6928;SDS011;3504;52.616;13.238;2023-06-22T21:21:59;21.25;;;15.23;;
6928;SDS011;3504;52.616;13.238;2023-06-22T21:27:00;17.85;;;15.93;;
6928;SDS011;3504;52.616;13.238;2023-06-22T21:32:00;17.20;;;14.80;;
6928;SDS011;3504;52.616;13.238;2023-06-22T21:37:01;17.17;;;15.32;;
6928;SDS011;3504;52.616;13.238;2023-06-22T21:42:03;17.23;;;15.43;;
6928;SDS011;3504;52.616;13.238;2023-06-22T21:47:04;20.40;;;16.77;;
6928;SDS011;3504;52.616;13.238;2023-06-22T21:52:07;19.98;;;16.67;;
6928;SDS011;3504;52.616;13.238;2023-06-22T21:57:12;22.17;;;16.15;;
6928;SDS011;3504;52.616;13.238;2023-06-22T22:02:12;17.98;;;16.23;;
6928;SDS011;3504;52.616;13.238;2023-06-22T22:07:13;19.95;;;16.92;;
6928;SDS011;3504;52.616;13.238;2023-06-22T22:12:13;22.65;;;18.17;;
6928;SDS011;3504;52.616;13.238;2023-06-22T22:17:14;19.88;;;16.27;;
6928;SDS011;3504;52.616;13.238;2023-06-22T22:22:14;18.92;;;17.02;;
6928;SDS011;3504;52.616;13.238;2023-06-22T22:27:15;17.98;;;16.08;;
6928;SDS011;3504;52.616;13.238;2023-06-22T22:32:16;17.98;;;16.13;;
6928;SDS011;3504;52.616;13.238;2023-06-22T22:37:16;18.58;;;16.65;;
6928;SDS011;3504;52.616;13.238;2023-06-22T22:42:17;18.33;;;16.42;;
6928;SDS011;3504;52.616;13.238;2023-06-22T22:47:17;18.45;;;16.33;;
6928;SDS011;3504;52.616;13.238;2023-06-22T22:52:18;19.05;;;15.40;;
6928;SDS011;3504;52.616;13.238;2023-06-22T22:57:18;16.88;;;15.35;;
6928;SDS011;3504;52.616;13.238;2023-06-22T23:02:19;17.15;;;15.38;;
6928;SDS011;3504;52.616;13.238;2023-06-22T23:07:21;16.17;;;14.57;;
6928;SDS011;3504;52.616;13.238;2023-06-22T23:12:22;13.48;;;12.07;;
6928;SDS011;3504;52.616;13.238;2023-06-22T23:17:24;14.57;;;12.23;;
6928;SDS011;3504;52.616;13.238;2023-06-22T23:22:24;14.43;;;12.45;;
6928;SDS011;3504;52.616;13.238;2023-06-22T23:27:25;13.45;;;12.10;;
6928;SDS011;3504;52.616;13.238;2023-06-22T23:32:25;13.88;;;12.40;;
6928;SDS011;3504;52.616;13.238;2023-06-22T23:37:26;12.82;;;11.48;;
6928;SDS011;3504;52.616;13.238;2023-06-22T23:42:27;12.43;;;10.57;;
6928;SDS011;3504;52.616;13.238;2023-06-22T23:47:27;11.75;;;10.43;;
6928;SDS011;3504;52.616;13.238;2023-06-22T23:52:29;11.00;;;9.43;;
6928;SDS011;3504;52.616;13.238;2023-06-22T23:57:29;12.25;;;8.93;;
